createdAt,value
2022-08-07T00:00:34.210Z,86.80
2022-08-07T00:04:35.981Z,86.60
2022-08-07T00:08:44.415Z,88.60
2022-08-07T00:13:00.607Z,87.20
2022-08-07T00:17:04.977Z,87.30
2022-08-07T00:21:56.304Z,88.50
2022-08-07T00:25:37.595Z,87.40
2022-08-07T00:29:43.784Z,87.50
2022-08-07T00:33:47.596Z,88.50
2022-08-07T00:37:49.762Z,87.90
2022-08-07T00:42:02.037Z,87.70
2022-08-07T00:46:09.019Z,87.70
2022-08-07T00:50:18.943Z,88.20
2022-08-07T00:54:34.659Z,89.30
2022-08-07T00:58:36.565Z,88.10
2022-08-07T01:02:40.381Z,87.10
2022-08-07T01:06:42.642Z,88.60
2022-08-07T01:10:47.607Z,88.20
2022-08-07T01:15:00.931Z,88.20
2022-08-07T01:19:18.087Z,89.80
2022-08-07T01:23:34.638Z,89.00
2022-08-07T01:27:41.076Z,89.90
2022-08-07T01:31:53.362Z,89.40
2022-08-07T01:35:56.802Z,89.40
2022-08-07T01:40:14.798Z,89.10
2022-08-07T01:44:17.605Z,87.50
2022-08-07T01:48:30.933Z,87.90
2022-08-07T01:52:35.318Z,90.10
2022-08-07T01:57:02.188Z,89.70
2022-08-07T02:01:59.044Z,89.40
2022-08-07T02:05:47.475Z,90.00
2022-08-07T02:09:58.998Z,90.60
2022-08-07T02:14:02.779Z,90.40
2022-08-07T02:18:05.492Z,90.70
2022-08-07T02:22:11.294Z,90.20
2022-08-07T02:26:32.668Z,90.20
2022-08-07T02:30:37.063Z,90.40
2022-08-07T02:34:51.197Z,90.20
2022-08-07T02:38:57.045Z,90.20
2022-08-07T02:43:00.293Z,89.70
2022-08-07T02:47:03.470Z,89.90
2022-08-07T02:51:28.941Z,89.70
2022-08-07T02:56:02.253Z,89.80
2022-08-07T03:00:04.859Z,89.90
2022-08-07T03:04:14.396Z,90.00
2022-08-07T03:08:18.174Z,90.00
2022-08-07T03:12:30.711Z,89.70
2022-08-07T03:16:34.618Z,90.60
2022-08-07T03:20:36.979Z,90.20
2022-08-07T03:24:38.975Z,90.00
2022-08-07T03:28:42.313Z,90.40
2022-08-07T03:32:58.902Z,89.80
2022-08-07T03:37:12.105Z,90.10
2022-08-07T03:41:15.100Z,90.40
2022-08-07T03:45:30.322Z,90.20
2022-08-07T03:49:34.195Z,90.30
2022-08-07T03:54:05.898Z,90.40
2022-08-07T03:58:32.977Z,91.10
2022-08-07T04:02:24.562Z,91.00
2022-08-07T04:06:37.281Z,91.00
2022-08-07T04:10:42.173Z,90.70
2022-08-07T04:14:47.669Z,91.10
2022-08-07T04:18:59.255Z,91.30
2022-08-07T04:23:06.488Z,91.10
2022-08-07T04:27:20.542Z,93.20
2022-08-07T04:31:39.169Z,93.00
2022-08-07T04:35:50.985Z,92.80
2022-08-07T04:39:53.142Z,92.60
2022-08-07T04:44:12.497Z,93.10
2022-08-07T04:48:34.340Z,93.00
2022-08-07T04:52:51.793Z,93.10
2022-08-07T04:58:13.073Z,93.30
2022-08-07T05:02:08.965Z,93.20
2022-08-07T05:06:43.497Z,93.10
2022-08-07T05:11:05.535Z,92.90
2022-08-07T05:15:21.673Z,92.70
2022-08-07T05:19:44.117Z,93.10
2022-08-07T05:24:06.742Z,93.10
2022-08-07T05:28:20.158Z,93.40
2022-08-07T05:32:26.396Z,93.30
2022-08-07T05:36:30.374Z,94.30
2022-08-07T05:40:36.682Z,94.50
2022-08-07T05:45:14.315Z,94.70
2022-08-07T05:49:15.680Z,94.20
2022-08-07T05:54:13.413Z,94.50
2022-08-07T05:57:42.794Z,94.50
2022-08-07T06:01:48.649Z,95.40
2022-08-07T06:05:56.582Z,95.80
2022-08-07T06:10:05.718Z,95.50
2022-08-07T06:14:11.764Z,95.10
2022-08-07T06:18:23.696Z,94.20
2022-08-07T06:22:35.612Z,93.70
2022-08-07T06:26:44.186Z,93.20
2022-08-07T06:30:46.198Z,92.90
2022-08-07T06:34:54.654Z,92.00
2022-08-07T06:38:59.144Z,91.60
2022-08-07T06:43:22.452Z,90.60
2022-08-07T06:47:27.064Z,90.60
2022-08-07T06:51:33.890Z,90.80
2022-08-07T06:55:59.906Z,91.10
2022-08-07T07:00:13.862Z,90.60
2022-08-07T07:04:28.427Z,90.70
2022-08-07T07:08:36.107Z,90.00
2022-08-07T07:12:50.311Z,88.40
2022-08-07T07:16:58.751Z,87.30
2022-08-07T07:21:13.547Z,84.20
2022-08-07T07:26:35.622Z,86.10
2022-08-07T07:30:08.865Z,82.60
2022-08-07T07:34:13.518Z,82.30
2022-08-07T07:38:20.719Z,82.20
2022-08-07T07:42:33.274Z,80.80
2022-08-07T07:46:55.847Z,80.20
2022-08-07T07:51:02.123Z,78.10
2022-08-07T07:55:05.849Z,79.00
2022-08-07T07:59:09.617Z,79.50
2022-08-07T08:03:16.322Z,79.20
2022-08-07T08:07:20.115Z,79.40
2022-08-07T08:11:59.229Z,77.00
2022-08-07T08:15:58.932Z,76.10
2022-08-07T08:20:22.910Z,76.10
2022-08-07T08:24:57.135Z,75.50
2022-08-07T08:29:15.076Z,75.30
2022-08-07T08:33:19.398Z,75.00
2022-08-07T08:38:01.311Z,75.00
2022-08-07T08:41:59.415Z,73.60
2022-08-07T08:46:28.782Z,73.80
2022-08-07T08:50:40.185Z,71.90
2022-08-07T08:54:49.294Z,71.90
2022-08-07T08:59:28.331Z,71.90
2022-08-07T09:04:00.039Z,71.10
2022-08-07T09:08:24.282Z,72.40
2022-08-07T09:12:53.759Z,74.20
2022-08-07T09:17:22.550Z,75.80
2022-08-07T09:22:37.215Z,75.00
2022-08-07T09:26:27.857Z,75.30
2022-08-07T09:31:03.039Z,74.80
2022-08-07T09:36:04.244Z,73.10
2022-08-07T09:39:59.449Z,74.00
2022-08-07T09:44:40.269Z,73.50
2022-08-07T09:50:00.887Z,72.90
2022-08-07T09:53:41.422Z,73.20
2022-08-07T09:58:01.235Z,75.50
2022-08-07T10:02:41.110Z,73.80
2022-08-07T10:07:52.399Z,71.20
2022-08-07T10:12:01.049Z,71.50
2022-08-07T10:16:48.698Z,70.30
2022-08-07T10:21:50.794Z,71.40
2022-08-07T10:25:54.923Z,70.10
2022-08-07T10:30:28.754Z,70.30
2022-08-07T10:34:50.085Z,70.70
2022-08-07T10:39:41.951Z,70.30
2022-08-07T10:44:33.844Z,71.00
2022-08-07T10:48:48.692Z,72.20
2022-08-07T10:53:09.483Z,71.10
2022-08-07T10:57:56.168Z,68.90
2022-08-07T11:02:33.563Z,70.90
2022-08-07T11:08:00.530Z,70.40
2022-08-07T11:12:06.511Z,70.50
2022-08-07T11:16:30.687Z,70.30
2022-08-07T11:20:54.810Z,71.60
2022-08-07T11:24:59.973Z,71.50
2022-08-07T11:29:42.870Z,69.80
2022-08-07T11:34:00.423Z,69.60
2022-08-07T11:38:28.101Z,68.30
2022-08-07T11:42:46.169Z,70.40
2022-08-07T11:47:17.802Z,69.80
2022-08-07T11:51:56.944Z,68.50
2022-08-07T11:56:26.871Z,68.20
2022-08-07T12:01:04.355Z,68.50
2022-08-07T12:05:49.167Z,67.30
2022-08-07T12:10:05.937Z,67.20
2022-08-07T12:14:19.006Z,68.00
2022-08-07T12:18:50.665Z,66.10
2022-08-07T12:23:21.404Z,66.30
2022-08-07T12:28:09.600Z,65.30
2022-08-07T12:32:22.400Z,65.80
2022-08-07T12:36:33.069Z,65.50
2022-08-07T12:40:47.360Z,67.60
2022-08-07T12:44:51.680Z,66.20
2022-08-07T12:49:25.859Z,65.90
2022-08-07T12:54:37.158Z,66.60
2022-08-07T12:58:07.882Z,66.40
2022-08-07T13:02:33.237Z,65.40
2022-08-07T13:07:08.668Z,65.20
2022-08-07T13:12:02.077Z,65.30
2022-08-07T13:16:36.803Z,65.50
2022-08-07T13:20:46.576Z,62.80
2022-08-07T13:25:29.738Z,65.20
2022-08-07T13:29:48.126Z,64.40
2022-08-07T13:34:35.559Z,64.60
2022-08-07T13:38:37.763Z,63.80
2022-08-07T13:42:46.128Z,63.10
2022-08-07T13:46:54.309Z,64.00
2022-08-07T13:51:02.023Z,63.40
2022-08-07T13:55:19.631Z,63.50
2022-08-07T13:59:32.798Z,63.60
2022-08-07T14:04:07.396Z,62.90
2022-08-07T14:08:04.773Z,63.20
2022-08-07T14:12:13.728Z,63.20
2022-08-07T14:16:16.775Z,64.40
2022-08-07T14:20:40.630Z,64.90
2022-08-07T14:24:51.265Z,63.10
2022-08-07T14:28:57.290Z,62.70
2022-08-07T14:33:05.151Z,62.70
2022-08-07T14:37:16.156Z,63.20
2022-08-07T14:41:33.965Z,63.80
2022-08-07T14:45:54.494Z,65.10
2022-08-07T14:49:59.255Z,64.00
2022-08-07T14:58:31.297Z,63.80
2022-08-07T15:02:37.405Z,64.40
2022-08-07T15:11:14.924Z,63.40
2022-08-07T15:15:26.163Z,62.30
2022-08-07T15:20:30.878Z,63.20
2022-08-07T15:25:12.824Z,64.10
2022-08-07T15:33:03.880Z,62.70
2022-08-07T15:37:08.281Z,64.70
2022-08-07T15:45:58.093Z,63.50
2022-08-07T15:50:09.669Z,62.80
2022-08-07T15:54:39.481Z,61.60
2022-08-07T15:58:52.507Z,62.30
2022-08-07T16:02:57.422Z,61.30
2022-08-07T16:07:04.973Z,61.60
2022-08-07T16:11:39.915Z,62.10
2022-08-07T16:16:06.882Z,60.90
2022-08-07T16:21:43.794Z,61.60
2022-08-07T16:25:54.210Z,61.40
2022-08-07T16:30:30.131Z,61.50
2022-08-07T16:34:56.665Z,62.10
2022-08-07T16:39:33.728Z,62.40
2022-08-07T16:44:46.923Z,61.00
2022-08-07T16:48:53.722Z,61.40
2022-08-07T16:53:57.197Z,61.40
2022-08-07T16:58:02.125Z,61.50
2022-08-07T17:02:51.435Z,60.70
2022-08-07T17:07:02.935Z,60.40
2022-08-07T17:11:16.870Z,60.80
2022-08-07T17:15:44.275Z,61.50
2022-08-07T17:20:14.026Z,61.10
2022-08-07T17:24:49.312Z,60.90
2022-08-07T17:30:15.891Z,60.90
2022-08-07T17:34:33.424Z,60.70
2022-08-07T17:38:44.447Z,61.20
2022-08-07T17:43:00.811Z,61.60
2022-08-07T17:47:37.955Z,61.60
2022-08-07T17:51:59.861Z,61.20
2022-08-07T17:56:32.687Z,61.30
2022-08-07T18:00:48.938Z,62.10
2022-08-07T18:05:21.079Z,60.50
2022-08-07T18:10:06.647Z,60.90
2022-08-07T18:14:17.923Z,61.40
2022-08-07T18:18:46.373Z,61.20
2022-08-07T18:23:02.098Z,61.20
2022-08-07T18:27:20.792Z,61.00
2022-08-07T18:31:52.418Z,61.60
2022-08-07T18:36:18.815Z,63.40
2022-08-07T18:40:53.649Z,64.50
2022-08-07T18:45:43.994Z,64.70
2022-08-07T18:50:31.879Z,67.40
2022-08-07T18:54:31.087Z,68.10
2022-08-07T18:58:37.514Z,69.00
2022-08-07T19:03:12.515Z,68.00
2022-08-07T19:08:03.706Z,68.30
2022-08-07T19:12:26.468Z,70.20
2022-08-07T19:17:04.930Z,68.90
2022-08-07T19:21:47.784Z,69.60
2022-08-07T19:26:23.973Z,72.40
2022-08-07T19:31:05.118Z,75.30
2022-08-07T19:34:47.930Z,75.60
2022-08-07T19:38:54.310Z,76.70
2022-08-07T19:42:56.654Z,78.70
2022-08-07T19:47:14.353Z,79.60
2022-08-07T19:51:19.203Z,79.30
2022-08-07T19:55:24.222Z,79.20
2022-08-07T19:59:40.938Z,79.10
2022-08-07T20:03:45.229Z,78.70
2022-08-07T20:07:50.688Z,77.40
2022-08-07T20:12:22.461Z,78.70
2022-08-07T20:16:32.076Z,80.60
2022-08-07T20:20:39.502Z,83.80
2022-08-07T20:24:48.033Z,82.60
2022-08-07T20:28:54.611Z,81.50
2022-08-07T20:32:59.702Z,80.20
2022-08-07T20:37:05.697Z,80.20
2022-08-07T20:41:08.244Z,79.40
2022-08-07T20:45:33.371Z,80.60
2022-08-07T20:49:58.115Z,78.10
2022-08-07T20:54:08.604Z,78.80
2022-08-07T20:58:19.612Z,79.70
2022-08-07T21:02:53.998Z,79.90
2022-08-07T21:07:04.509Z,81.00
2022-08-07T21:11:22.025Z,79.60
2022-08-07T21:15:47.781Z,81.00
2022-08-07T21:20:04.384Z,82.20
2022-08-07T21:24:15.303Z,82.30
2022-08-07T21:28:49.359Z,83.00
2022-08-07T21:33:11.885Z,84.00
2022-08-07T21:37:58.930Z,82.90
2022-08-07T21:42:48.420Z,83.70
2022-08-07T21:46:59.725Z,85.00
2022-08-07T21:51:25.107Z,85.90
2022-08-07T21:55:56.334Z,86.50
2022-08-07T22:00:22.195Z,87.30
2022-08-07T22:04:33.866Z,86.30
2022-08-07T22:09:10.325Z,86.70
2022-08-07T22:13:14.296Z,87.40
2022-08-07T22:17:19.192Z,87.60
2022-08-07T22:21:26.141Z,86.60
2022-08-07T22:26:13.369Z,88.90
2022-08-07T22:30:19.224Z,88.00
2022-08-07T22:34:35.818Z,88.20
2022-08-07T22:38:55.231Z,89.10
2022-08-07T22:43:10.782Z,90.10
2022-08-07T22:47:31.922Z,89.20
2022-08-07T22:51:37.337Z,88.90
2022-08-07T22:55:59.525Z,88.00
2022-08-07T23:00:07.189Z,88.60
2022-08-07T23:04:30.973Z,87.30
2022-08-07T23:10:06.339Z,87.30
2022-08-07T23:14:14.952Z,87.10
2022-08-07T23:18:44.277Z,85.90
2022-08-07T23:23:09.754Z,86.00
2022-08-07T23:27:17.734Z,85.80
2022-08-07T23:34:23.671Z,86.60
2022-08-07T23:36:22.765Z,85.90
2022-08-07T23:40:36.223Z,86.20
2022-08-07T23:44:52.453Z,87.10
2022-08-07T23:49:15.194Z,86.30
2022-08-07T23:53:51.899Z,87.10
2022-08-07T23:57:58.475Z,87.10
